sensor_id;sensor_type;location;lat;lon;timestamp;P1;durP1;ratioP1;P2;durP2;ratioP2
42104;SDS011;70664;51.472;5.712;2024-01-15T00:02:08;8.38;;;5.50;;
42104;SDS011;70664;51.472;5.712;2024-01-15T00:04:37;7.78;;;5.45;;
42104;SDS011;70664;51.472;5.712;2024-01-15T00:07:04;9.55;;;5.47;;
42104;SDS011;70664;51.472;5.712;2024-01-15T00:09:31;7.85;;;5.50;;
42104;SDS011;70664;51.472;5.712;2024-01-15T00:11:57;9.82;;;5.63;;
42104;SDS011;70664;51.472;5.712;2024-01-15T00:14:23;8.40;;;5.13;;
42104;SDS011;70664;51.472;5.712;2024-01-15T00:16:49;9.48;;;5.40;;
42104;SDS011;70664;51.472;5.712;2024-01-15T00:19:16;7.75;;;5.50;;
42104;SDS011;70664;51.472;5.712;2024-01-15T00:21:46;6.90;;;5.10;;
42104;SDS011;70664;51.472;5.712;2024-01-15T00:24:12;8.48;;;5.43;;
42104;SDS011;70664;51.472;5.712;2024-01-15T00:26:38;8.88;;;5.28;;
42104;SDS011;70664;51.472;5.712;2024-01-15T00:29:06;10.27;;;5.93;;
42104;SDS011;70664;51.472;5.712;2024-01-15T00:31:33;8.38;;;5.70;;
42104;SDS011;70664;51.472;5.712;2024-01-15T00:33:59;7.88;;;4.88;;
42104;SDS011;70664;51.472;5.712;2024-01-15T00:36:25;8.35;;;5.22;;
42104;SDS011;70664;51.472;5.712;2024-01-15T00:38:51;9.60;;;5.38;;
42104;SDS011;70664;51.472;5.712;2024-01-15T00:41:17;7.10;;;4.97;;
42104;SDS011;70664;51.472;5.712;2024-01-15T00:43:44;9.38;;;5.05;;
42104;SDS011;70664;51.472;5.712;2024-01-15T00:46:10;6.60;;;5.18;;
42104;SDS011;70664;51.472;5.712;2024-01-15T00:48:36;7.38;;;5.00;;
42104;SDS011;70664;51.472;5.712;2024-01-15T00:51:03;7.72;;;5.13;;
42104;SDS011;70664;51.472;5.712;2024-01-15T00:53:29;7.00;;;4.85;;
42104;SDS011;70664;51.472;5.712;2024-01-15T00:55:56;8.90;;;5.05;;
42104;SDS011;70664;51.472;5.712;2024-01-15T00:58:22;7.88;;;4.75;;
42104;SDS011;70664;51.472;5.712;2024-01-15T01:00:48;6.50;;;4.72;;
42104;SDS011;70664;51.472;5.712;2024-01-15T01:03:13;8.35;;;4.78;;
42104;SDS011;70664;51.472;5.712;2024-01-15T01:05:39;6.70;;;4.70;;
42104;SDS011;70664;51.472;5.712;2024-01-15T01:08:05;6.45;;;4.60;;
42104;SDS011;70664;51.472;5.712;2024-01-15T01:10:31;7.07;;;4.63;;
42104;SDS011;70664;51.472;5.712;2024-01-15T01:12:57;7.50;;;4.90;;
42104;SDS011;70664;51.472;5.712;2024-01-15T01:15:22;6.65;;;4.70;;
42104;SDS011;70664;51.472;5.712;2024-01-15T01:17:49;7.50;;;4.95;;
42104;SDS011;70664;51.472;5.712;2024-01-15T01:20:15;7.13;;;4.93;;
42104;SDS011;70664;51.472;5.712;2024-01-15T01:22:41;5.82;;;4.57;;
42104;SDS011;70664;51.472;5.712;2024-01-15T01:25:07;6.88;;;4.68;;
42104;SDS011;70664;51.472;5.712;2024-01-15T01:27:34;6.82;;;4.82;;
42104;SDS011;70664;51.472;5.712;2024-01-15T01:30:00;6.18;;;4.43;;
42104;SDS011;70664;51.472;5.712;2024-01-15T01:32:26;7.47;;;4.43;;
42104;SDS011;70664;51.472;5.712;2024-01-15T01:34:52;7.88;;;4.53;;
42104;SDS011;70664;51.472;5.712;2024-01-15T01:37:18;6.80;;;4.32;;
42104;SDS011;70664;51.472;5.712;2024-01-15T01:39:44;6.40;;;4.43;;
42104;SDS011;70664;51.472;5.712;2024-01-15T01:42:10;6.10;;;4.35;;
42104;SDS011;70664;51.472;5.712;2024-01-15T01:44:36;8.25;;;4.50;;
42104;SDS011;70664;51.472;5.712;2024-01-15T01:47:02;6.10;;;4.28;;
42104;SDS011;70664;51.472;5.712;2024-01-15T01:49:30;6.80;;;4.20;;
42104;SDS011;70664;51.472;5.712;2024-01-15T01:51:57;6.35;;;3.95;;
42104;SDS011;70664;51.472;5.712;2024-01-15T01:54:26;6.80;;;4.10;;
42104;SDS011;70664;51.472;5.712;2024-01-15T01:56:55;5.68;;;3.97;;
42104;SDS011;70664;51.472;5.712;2024-01-15T01:59:22;5.20;;;4.07;;
42104;SDS011;70664;51.472;5.712;2024-01-15T02:01:52;6.20;;;3.80;;
42104;SDS011;70664;51.472;5.712;2024-01-15T02:04:20;6.55;;;4.30;;
42104;SDS011;70664;51.472;5.712;2024-01-15T02:06:49;5.40;;;4.00;;
42104;SDS011;70664;51.472;5.712;2024-01-15T02:09:17;5.90;;;3.67;;
42104;SDS011;70664;51.472;5.712;2024-01-15T02:11:43;5.35;;;3.45;;
42104;SDS011;70664;51.472;5.712;2024-01-15T02:14:12;6.28;;;3.90;;
42104;SDS011;70664;51.472;5.712;2024-01-15T02:16:38;5.93;;;3.63;;
42104;SDS011;70664;51.472;5.712;2024-01-15T02:19:04;4.93;;;3.72;;
42104;SDS011;70664;51.472;5.712;2024-01-15T02:21:31;5.75;;;3.70;;
42104;SDS011;70664;51.472;5.712;2024-01-15T02:23:57;6.32;;;4.05;;
42104;SDS011;70664;51.472;5.712;2024-01-15T02:26:23;5.18;;;3.40;;
42104;SDS011;70664;51.472;5.712;2024-01-15T02:28:50;5.32;;;3.40;;
42104;SDS011;70664;51.472;5.712;2024-01-15T02:31:16;4.82;;;3.40;;
42104;SDS011;70664;51.472;5.712;2024-01-15T02:33:43;5.40;;;3.88;;
42104;SDS011;70664;51.472;5.712;2024-01-15T02:36:11;5.97;;;3.50;;
42104;SDS011;70664;51.472;5.712;2024-01-15T02:38:37;6.50;;;3.55;;
42104;SDS011;70664;51.472;5.712;2024-01-15T02:41:03;5.00;;;3.30;;
42104;SDS011;70664;51.472;5.712;2024-01-15T02:43:29;4.93;;;3.58;;
42104;SDS011;70664;51.472;5.712;2024-01-15T02:45:55;4.82;;;3.40;;
42104;SDS011;70664;51.472;5.712;2024-01-15T02:48:20;4.45;;;3.08;;
42104;SDS011;70664;51.472;5.712;2024-01-15T02:50:46;6.25;;;3.83;;
42104;SDS011;70664;51.472;5.712;2024-01-15T02:53:12;5.13;;;3.53;;
42104;SDS011;70664;51.472;5.712;2024-01-15T02:55:38;4.00;;;3.08;;
42104;SDS011;70664;51.472;5.712;2024-01-15T02:58:04;5.20;;;3.47;;
42104;SDS011;70664;51.472;5.712;2024-01-15T03:00:29;4.38;;;3.08;;
42104;SDS011;70664;51.472;5.712;2024-01-15T03:02:55;5.78;;;3.30;;
42104;SDS011;70664;51.472;5.712;2024-01-15T03:05:21;5.10;;;2.97;;
42104;SDS011;70664;51.472;5.712;2024-01-15T03:07:47;4.78;;;3.15;;
42104;SDS011;70664;51.472;5.712;2024-01-15T03:10:13;4.13;;;2.90;;
42104;SDS011;70664;51.472;5.712;2024-01-15T03:12:39;4.22;;;3.15;;
42104;SDS011;70664;51.472;5.712;2024-01-15T03:15:04;4.40;;;2.80;;
42104;SDS011;70664;51.472;5.712;2024-01-15T03:17:30;4.00;;;3.20;;
42104;SDS011;70664;51.472;5.712;2024-01-15T03:19:56;4.10;;;2.90;;
42104;SDS011;70664;51.472;5.712;2024-01-15T03:22:22;4.85;;;2.70;;
42104;SDS011;70664;51.472;5.712;2024-01-15T03:24:48;5.35;;;3.22;;
42104;SDS011;70664;51.472;5.712;2024-01-15T03:27:14;4.75;;;3.22;;
42104;SDS011;70664;51.472;5.712;2024-01-15T03:29:40;3.88;;;2.90;;
42104;SDS011;70664;51.472;5.712;2024-01-15T03:32:06;5.15;;;3.30;;
42104;SDS011;70664;51.472;5.712;2024-01-15T03:34:32;5.28;;;3.10;;
42104;SDS011;70664;51.472;5.712;2024-01-15T03:36:58;4.00;;;2.95;;
42104;SDS011;70664;51.472;5.712;2024-01-15T03:39:24;5.35;;;2.72;;
42104;SDS011;70664;51.472;5.712;2024-01-15T03:41:50;4.82;;;2.70;;
42104;SDS011;70664;51.472;5.712;2024-01-15T03:44:16;4.03;;;2.90;;
42104;SDS011;70664;51.472;5.712;2024-01-15T03:46:41;4.10;;;2.78;;
42104;SDS011;70664;51.472;5.712;2024-01-15T03:49:07;5.00;;;2.58;;
42104;SDS011;70664;51.472;5.712;2024-01-15T03:51:33;4.20;;;2.65;;
42104;SDS011;70664;51.472;5.712;2024-01-15T03:53:59;3.58;;;2.88;;
42104;SDS011;70664;51.472;5.712;2024-01-15T03:56:24;4.13;;;2.80;;
42104;SDS011;70664;51.472;5.712;2024-01-15T03:58:50;3.95;;;2.78;;
42104;SDS011;70664;51.472;5.712;2024-01-15T04:01:16;3.35;;;2.58;;
42104;SDS011;70664;51.472;5.712;2024-01-15T04:03:42;4.90;;;2.90;;
42104;SDS011;70664;51.472;5.712;2024-01-15T04:06:07;4.45;;;2.95;;
42104;SDS011;70664;51.472;5.712;2024-01-15T04:08:33;4.38;;;3.00;;
42104;SDS011;70664;51.472;5.712;2024-01-15T04:10:59;4.53;;;2.83;;
42104;SDS011;70664;51.472;5.712;2024-01-15T04:13:26;3.20;;;2.50;;
42104;SDS011;70664;51.472;5.712;2024-01-15T04:15:52;2.95;;;2.47;;
42104;SDS011;70664;51.472;5.712;2024-01-15T04:18:18;3.65;;;2.50;;
42104;SDS011;70664;51.472;5.712;2024-01-15T04:20:44;3.53;;;2.33;;
42104;SDS011;70664;51.472;5.712;2024-01-15T04:23:10;4.40;;;2.83;;
42104;SDS011;70664;51.472;5.712;2024-01-15T04:25:35;5.00;;;2.42;;
42104;SDS011;70664;51.472;5.712;2024-01-15T04:28:01;3.70;;;2.50;;
42104;SDS011;70664;51.472;5.712;2024-01-15T04:30:27;3.72;;;2.53;;
42104;SDS011;70664;51.472;5.712;2024-01-15T04:32:53;3.85;;;2.22;;
42104;SDS011;70664;51.472;5.712;2024-01-15T04:35:19;4.25;;;2.45;;
42104;SDS011;70664;51.472;5.712;2024-01-15T04:37:44;4.28;;;2.35;;
42104;SDS011;70664;51.472;5.712;2024-01-15T04:40:10;3.65;;;2.38;;
42104;SDS011;70664;51.472;5.712;2024-01-15T04:42:36;3.30;;;2.30;;
42104;SDS011;70664;51.472;5.712;2024-01-15T04:45:02;3.50;;;2.13;;
42104;SDS011;70664;51.472;5.712;2024-01-15T04:47:28;3.70;;;2.50;;
42104;SDS011;70664;51.472;5.712;2024-01-15T04:49:54;3.92;;;2.22;;
42104;SDS011;70664;51.472;5.712;2024-01-15T04:52:20;4.35;;;2.40;;
42104;SDS011;70664;51.472;5.712;2024-01-15T04:54:49;2.92;;;2.30;;
42104;SDS011;70664;51.472;5.712;2024-01-15T04:57:15;4.63;;;2.40;;
42104;SDS011;70664;51.472;5.712;2024-01-15T04:59:40;2.95;;;2.10;;
42104;SDS011;70664;51.472;5.712;2024-01-15T05:02:06;2.70;;;2.00;;
42104;SDS011;70664;51.472;5.712;2024-01-15T05:04:32;4.00;;;2.40;;
42104;SDS011;70664;51.472;5.712;2024-01-15T05:06:58;2.97;;;1.98;;
42104;SDS011;70664;51.472;5.712;2024-01-15T05:09:23;3.38;;;2.10;;
42104;SDS011;70664;51.472;5.712;2024-01-15T05:11:49;3.47;;;2.22;;
42104;SDS011;70664;51.472;5.712;2024-01-15T05:14:15;2.63;;;1.88;;
42104;SDS011;70664;51.472;5.712;2024-01-15T05:16:50;3.20;;;1.95;;
42104;SDS011;70664;51.472;5.712;2024-01-15T05:19:16;2.60;;;1.95;;
42104;SDS011;70664;51.472;5.712;2024-01-15T05:21:41;3.60;;;2.10;;
42104;SDS011;70664;51.472;5.712;2024-01-15T05:24:08;2.80;;;2.00;;
42104;SDS011;70664;51.472;5.712;2024-01-15T05:26:34;2.97;;;2.03;;
42104;SDS011;70664;51.472;5.712;2024-01-15T05:29:02;2.50;;;1.80;;
42104;SDS011;70664;51.472;5.712;2024-01-15T05:31:28;2.22;;;2.00;;
42104;SDS011;70664;51.472;5.712;2024-01-15T05:33:54;3.35;;;2.00;;
42104;SDS011;70664;51.472;5.712;2024-01-15T05:36:20;2.90;;;1.70;;
42104;SDS011;70664;51.472;5.712;2024-01-15T05:38:46;3.92;;;1.90;;
42104;SDS011;70664;51.472;5.712;2024-01-15T05:41:13;2.70;;;2.10;;
42104;SDS011;70664;51.472;5.712;2024-01-15T05:43:39;2.97;;;1.80;;
42104;SDS011;70664;51.472;5.712;2024-01-15T05:46:04;3.33;;;1.85;;
42104;SDS011;70664;51.472;5.712;2024-01-15T05:48:30;3.00;;;1.95;;
42104;SDS011;70664;51.472;5.712;2024-01-15T05:50:56;2.75;;;1.90;;
42104;SDS011;70664;51.472;5.712;2024-01-15T05:53:22;2.67;;;2.00;;
42104;SDS011;70664;51.472;5.712;2024-01-15T05:55:47;3.05;;;1.88;;
42104;SDS011;70664;51.472;5.712;2024-01-15T05:58:13;3.35;;;1.77;;
42104;SDS011;70664;51.472;5.712;2024-01-15T06:00:39;3.35;;;1.70;;
42104;SDS011;70664;51.472;5.712;2024-01-15T06:03:05;2.88;;;1.92;;
42104;SDS011;70664;51.472;5.712;2024-01-15T06:05:37;4.13;;;1.95;;
42104;SDS011;70664;51.472;5.712;2024-01-15T06:08:03;2.40;;;1.58;;
42104;SDS011;70664;51.472;5.712;2024-01-15T06:10:28;2.42;;;1.67;;
42104;SDS011;70664;51.472;5.712;2024-01-15T06:12:54;3.42;;;1.88;;
42104;SDS011;70664;51.472;5.712;2024-01-15T06:15:20;3.95;;;1.52;;
42104;SDS011;70664;51.472;5.712;2024-01-15T06:17:46;2.88;;;1.70;;
42104;SDS011;70664;51.472;5.712;2024-01-15T06:20:11;3.10;;;1.75;;
42104;SDS011;70664;51.472;5.712;2024-01-15T06:22:38;2.00;;;1.45;;
42104;SDS011;70664;51.472;5.712;2024-01-15T06:25:05;2.97;;;1.75;;
42104;SDS011;70664;51.472;5.712;2024-01-15T06:27:33;2.63;;;1.60;;
42104;SDS011;70664;51.472;5.712;2024-01-15T06:29:59;2.90;;;1.75;;
42104;SDS011;70664;51.472;5.712;2024-01-15T06:32:25;1.73;;;1.38;;
42104;SDS011;70664;51.472;5.712;2024-01-15T06:34:58;3.08;;;1.60;;
42104;SDS011;70664;51.472;5.712;2024-01-15T06:37:24;2.67;;;1.70;;
42104;SDS011;70664;51.472;5.712;2024-01-15T06:39:50;2.97;;;1.50;;
42104;SDS011;70664;51.472;5.712;2024-01-15T06:42:16;2.25;;;1.77;;
42104;SDS011;70664;51.472;5.712;2024-01-15T06:44:41;2.35;;;1.58;;
42104;SDS011;70664;51.472;5.712;2024-01-15T06:47:07;2.47;;;1.60;;
42104;SDS011;70664;51.472;5.712;2024-01-15T06:49:33;3.20;;;1.70;;
42104;SDS011;70664;51.472;5.712;2024-01-15T06:51:59;2.22;;;1.50;;
42104;SDS011;70664;51.472;5.712;2024-01-15T06:54:24;2.75;;;1.67;;
42104;SDS011;70664;51.472;5.712;2024-01-15T06:56:51;3.22;;;1.60;;
42104;SDS011;70664;51.472;5.712;2024-01-15T06:59:17;5.00;;;1.55;;
42104;SDS011;70664;51.472;5.712;2024-01-15T07:01:43;1.52;;;1.40;;
42104;SDS011;70664;51.472;5.712;2024-01-15T07:04:08;2.58;;;1.50;;
42104;SDS011;70664;51.472;5.712;2024-01-15T07:06:35;2.92;;;1.50;;
42104;SDS011;70664;51.472;5.712;2024-01-15T07:09:01;2.92;;;1.67;;
42104;SDS011;70664;51.472;5.712;2024-01-15T07:11:26;2.47;;;1.40;;
42104;SDS011;70664;51.472;5.712;2024-01-15T07:13:52;2.75;;;1.67;;
42104;SDS011;70664;51.472;5.712;2024-01-15T07:16:18;2.33;;;1.50;;
42104;SDS011;70664;51.472;5.712;2024-01-15T07:18:44;2.13;;;1.42;;
42104;SDS011;70664;51.472;5.712;2024-01-15T07:21:10;2.53;;;1.42;;
42104;SDS011;70664;51.472;5.712;2024-01-15T07:23:35;1.88;;;1.40;;
42104;SDS011;70664;51.472;5.712;2024-01-15T07:26:01;1.98;;;1.52;;
42104;SDS011;70664;51.472;5.712;2024-01-15T07:28:30;2.20;;;1.27;;
42104;SDS011;70664;51.472;5.712;2024-01-15T07:30:56;2.05;;;1.30;;
42104;SDS011;70664;51.472;5.712;2024-01-15T07:33:22;2.65;;;1.58;;
42104;SDS011;70664;51.472;5.712;2024-01-15T07:35:48;1.67;;;1.30;;
42104;SDS011;70664;51.472;5.712;2024-01-15T07:38:14;2.35;;;1.60;;
42104;SDS011;70664;51.472;5.712;2024-01-15T07:40:39;2.65;;;1.50;;
42104;SDS011;70664;51.472;5.712;2024-01-15T07:43:05;1.58;;;1.15;;
42104;SDS011;70664;51.472;5.712;2024-01-15T07:45:31;2.08;;;1.52;;
42104;SDS011;70664;51.472;5.712;2024-01-15T07:47:57;6.15;;;1.70;;
42104;SDS011;70664;51.472;5.712;2024-01-15T07:50:23;1.65;;;1.08;;
42104;SDS011;70664;51.472;5.712;2024-01-15T07:52:49;2.35;;;1.50;;
42104;SDS011;70664;51.472;5.712;2024-01-15T07:55:14;2.28;;;1.50;;
42104;SDS011;70664;51.472;5.712;2024-01-15T07:57:40;1.52;;;1.30;;
42104;SDS011;70664;51.472;5.712;2024-01-15T08:00:06;3.30;;;1.50;;
42104;SDS011;70664;51.472;5.712;2024-01-15T08:02:34;2.85;;;1.38;;
42104;SDS011;70664;51.472;5.712;2024-01-15T08:04:59;1.58;;;1.25;;
42104;SDS011;70664;51.472;5.712;2024-01-15T08:07:25;3.30;;;1.52;;
42104;SDS011;70664;51.472;5.712;2024-01-15T08:09:52;2.17;;;1.40;;
42104;SDS011;70664;51.472;5.712;2024-01-15T08:12:18;3.50;;;1.40;;
42104;SDS011;70664;51.472;5.712;2024-01-15T08:14:44;3.33;;;1.70;;
42104;SDS011;70664;51.472;5.712;2024-01-15T08:17:10;1.75;;;1.40;;
42104;SDS011;70664;51.472;5.712;2024-01-15T08:19:36;2.38;;;1.30;;
42104;SDS011;70664;51.472;5.712;2024-01-15T08:22:02;2.08;;;1.23;;
42104;SDS011;70664;51.472;5.712;2024-01-15T08:24:28;2.35;;;1.40;;
42104;SDS011;70664;51.472;5.712;2024-01-15T08:26:54;1.88;;;1.20;;
42104;SDS011;70664;51.472;5.712;2024-01-15T08:29:21;2.00;;;1.30;;
42104;SDS011;70664;51.472;5.712;2024-01-15T08:31:47;1.65;;;1.20;;
42104;SDS011;70664;51.472;5.712;2024-01-15T08:34:13;1.85;;;1.05;;
42104;SDS011;70664;51.472;5.712;2024-01-15T08:36:39;1.65;;;1.20;;
42104;SDS011;70664;51.472;5.712;2024-01-15T08:39:05;2.50;;;1.67;;
42104;SDS011;70664;51.472;5.712;2024-01-15T08:41:33;1.70;;;1.15;;
42104;SDS011;70664;51.472;5.712;2024-01-15T08:43:59;1.75;;;1.27;;
42104;SDS011;70664;51.472;5.712;2024-01-15T08:46:25;2.53;;;1.50;;
42104;SDS011;70664;51.472;5.712;2024-01-15T08:48:51;3.33;;;1.50;;
42104;SDS011;70664;51.472;5.712;2024-01-15T08:51:17;1.40;;;1.17;;
42104;SDS011;70664;51.472;5.712;2024-01-15T08:53:43;1.52;;;1.10;;
42104;SDS011;70664;51.472;5.712;2024-01-15T08:56:09;1.75;;;1.23;;
42104;SDS011;70664;51.472;5.712;2024-01-15T08:58:35;3.70;;;1.30;;
42104;SDS011;70664;51.472;5.712;2024-01-15T09:01:01;4.63;;;1.50;;
42104;SDS011;70664;51.472;5.712;2024-01-15T09:03:27;4.03;;;1.30;;
42104;SDS011;70664;51.472;5.712;2024-01-15T09:05:53;3.80;;;1.30;;
42104;SDS011;70664;51.472;5.712;2024-01-15T09:08:19;4.03;;;1.40;;
42104;SDS011;70664;51.472;5.712;2024-01-15T09:10:45;5.10;;;1.38;;
42104;SDS011;70664;51.472;5.712;2024-01-15T09:13:11;1.58;;;1.20;;
42104;SDS011;70664;51.472;5.712;2024-01-15T09:15:36;3.20;;;1.20;;
42104;SDS011;70664;51.472;5.712;2024-01-15T09:18:02;2.95;;;1.10;;
42104;SDS011;70664;51.472;5.712;2024-01-15T09:20:30;2.65;;;1.38;;
42104;SDS011;70664;51.472;5.712;2024-01-15T09:22:55;2.80;;;1.30;;
42104;SDS011;70664;51.472;5.712;2024-01-15T09:25:21;2.63;;;1.20;;
42104;SDS011;70664;51.472;5.712;2024-01-15T09:27:47;3.17;;;1.10;;
42104;SDS011;70664;51.472;5.712;2024-01-15T09:30:13;2.03;;;1.10;;
42104;SDS011;70664;51.472;5.712;2024-01-15T09:32:39;1.67;;;1.10;;
42104;SDS011;70664;51.472;5.712;2024-01-15T09:35:05;2.13;;;1.40;;
42104;SDS011;70664;51.472;5.712;2024-01-15T09:37:31;1.30;;;0.93;;
42104;SDS011;70664;51.472;5.712;2024-01-15T09:39:57;2.10;;;1.10;;
42104;SDS011;70664;51.472;5.712;2024-01-15T09:42:26;5.03;;;1.60;;
42104;SDS011;70664;51.472;5.712;2024-01-15T09:44:53;2.35;;;1.20;;
42104;SDS011;70664;51.472;5.712;2024-01-15T09:47:19;1.38;;;1.02;;
42104;SDS011;70664;51.472;5.712;2024-01-15T09:49:47;1.55;;;1.10;;
42104;SDS011;70664;51.472;5.712;2024-01-15T09:52:13;5.00;;;1.33;;
42104;SDS011;70664;51.472;5.712;2024-01-15T09:54:43;2.38;;;0.93;;
42104;SDS011;70664;51.472;5.712;2024-01-15T09:57:10;2.03;;;1.20;;
42104;SDS011;70664;51.472;5.712;2024-01-15T09:59:36;2.80;;;0.98;;
42104;SDS011;70664;51.472;5.712;2024-01-15T10:02:03;2.95;;;0.95;;
42104;SDS011;70664;51.472;5.712;2024-01-15T10:04:31;4.45;;;1.25;;
42104;SDS011;70664;51.472;5.712;2024-01-15T10:06:57;10.15;;;1.20;;
42104;SDS011;70664;51.472;5.712;2024-01-15T10:09:26;5.68;;;1.05;;
42104;SDS011;70664;51.472;5.712;2024-01-15T10:11:52;3.70;;;1.00;;
42104;SDS011;70664;51.472;5.712;2024-01-15T10:14:19;4.20;;;1.10;;
42104;SDS011;70664;51.472;5.712;2024-01-15T10:16:45;14.50;;;2.25;;
42104;SDS011;70664;51.472;5.712;2024-01-15T10:19:10;7.82;;;1.33;;
42104;SDS011;70664;51.472;5.712;2024-01-15T10:21:36;10.27;;;1.20;;
42104;SDS011;70664;51.472;5.712;2024-01-15T10:24:03;8.45;;;1.30;;
42104;SDS011;70664;51.472;5.712;2024-01-15T10:26:30;20.58;;;1.92;;
42104;SDS011;70664;51.472;5.712;2024-01-15T10:29:00;11.30;;;1.52;;
42104;SDS011;70664;51.472;5.712;2024-01-15T10:31:26;10.05;;;1.40;;
42104;SDS011;70664;51.472;5.712;2024-01-15T10:33:52;11.15;;;1.30;;
42104;SDS011;70664;51.472;5.712;2024-01-15T10:36:18;10.52;;;1.70;;
42104;SDS011;70664;51.472;5.712;2024-01-15T10:38:44;11.70;;;2.15;;
42104;SDS011;70664;51.472;5.712;2024-01-15T10:41:11;9.80;;;1.30;;
42104;SDS011;70664;51.472;5.712;2024-01-15T10:43:37;10.18;;;1.30;;
42104;SDS011;70664;51.472;5.712;2024-01-15T10:46:06;8.13;;;1.20;;
42104;SDS011;70664;51.472;5.712;2024-01-15T10:48:32;9.88;;;1.48;;
42104;SDS011;70664;51.472;5.712;2024-01-15T10:51:00;10.10;;;1.70;;
42104;SDS011;70664;51.472;5.712;2024-01-15T10:53:35;13.18;;;1.40;;
42104;SDS011;70664;51.472;5.712;2024-01-15T10:56:07;6.10;;;1.20;;
42104;SDS011;70664;51.472;5.712;2024-01-15T10:58:36;7.80;;;1.48;;
42104;SDS011;70664;51.472;5.712;2024-01-15T11:01:04;9.35;;;2.00;;
42104;SDS011;70664;51.472;5.712;2024-01-15T11:03:30;4.50;;;1.10;;
42104;SDS011;70664;51.472;5.712;2024-01-15T11:05:56;5.72;;;1.30;;
42104;SDS011;70664;51.472;5.712;2024-01-15T11:08:23;9.15;;;1.33;;
42104;SDS011;70664;51.472;5.712;2024-01-15T11:10:50;8.98;;;1.73;;
42104;SDS011;70664;51.472;5.712;2024-01-15T11:13:21;6.68;;;1.00;;
42104;SDS011;70664;51.472;5.712;2024-01-15T11:16:08;14.13;;;1.05;;
42104;SDS011;70664;51.472;5.712;2024-01-15T11:18:42;7.07;;;1.00;;
42104;SDS011;70664;51.472;5.712;2024-01-15T11:21:27;8.73;;;1.25;;
42104;SDS011;70664;51.472;5.712;2024-01-15T11:32:02;6.97;;;1.40;;
42104;SDS011;70664;51.472;5.712;2024-01-15T11:37:27;9.15;;;1.25;;
42104;SDS011;70664;51.472;5.712;2024-01-15T11:40:14;7.47;;;1.50;;
42104;SDS011;70664;51.472;5.712;2024-01-15T11:42:58;6.03;;;1.33;;
42104;SDS011;70664;51.472;5.712;2024-01-15T11:45:24;9.00;;;1.70;;
42104;SDS011;70664;51.472;5.712;2024-01-15T11:50:38;7.03;;;1.10;;
42104;SDS011;70664;51.472;5.712;2024-01-15T11:56:00;7.95;;;1.15;;
42104;SDS011;70664;51.472;5.712;2024-01-15T11:58:28;8.50;;;1.05;;
42104;SDS011;70664;51.472;5.712;2024-01-15T12:00:54;8.73;;;1.10;;
42104;SDS011;70664;51.472;5.712;2024-01-15T12:03:21;5.07;;;1.80;;
42104;SDS011;70664;51.472;5.712;2024-01-15T12:05:49;10.50;;;1.85;;
42104;SDS011;70664;51.472;5.712;2024-01-15T12:08:21;11.65;;;1.70;;
42104;SDS011;70664;51.472;5.712;2024-01-15T12:10:51;9.67;;;1.53;;
42104;SDS011;70664;51.472;5.712;2024-01-15T12:13:18;7.90;;;1.60;;
42104;SDS011;70664;51.472;5.712;2024-01-15T12:15:45;14.15;;;2.15;;
42104;SDS011;70664;51.472;5.712;2024-01-15T12:18:14;5.80;;;1.40;;
42104;SDS011;70664;51.472;5.712;2024-01-15T12:20:42;10.38;;;1.48;;
42104;SDS011;70664;51.472;5.712;2024-01-15T12:23:09;7.60;;;1.60;;
42104;SDS011;70664;51.472;5.712;2024-01-15T12:25:36;10.70;;;1.88;;
42104;SDS011;70664;51.472;5.712;2024-01-15T12:28:02;13.85;;;1.70;;
42104;SDS011;70664;51.472;5.712;2024-01-15T12:30:29;11.60;;;1.55;;
42104;SDS011;70664;51.472;5.712;2024-01-15T12:33:01;11.25;;;1.55;;
42104;SDS011;70664;51.472;5.712;2024-01-15T12:35:30;10.88;;;1.80;;
42104;SDS011;70664;51.472;5.712;2024-01-15T12:37:56;10.60;;;1.58;;
42104;SDS011;70664;51.472;5.712;2024-01-15T12:40:22;5.72;;;1.65;;
42104;SDS011;70664;51.472;5.712;2024-01-15T12:42:49;9.63;;;1.63;;
42104;SDS011;70664;51.472;5.712;2024-01-15T12:45:15;16.58;;;1.77;;
42104;SDS011;70664;51.472;5.712;2024-01-15T12:47:41;7.75;;;1.58;;
42104;SDS011;70664;51.472;5.712;2024-01-15T12:50:08;9.40;;;1.30;;
42104;SDS011;70664;51.472;5.712;2024-01-15T12:52:35;11.18;;;1.67;;
42104;SDS011;70664;51.472;5.712;2024-01-15T12:55:02;10.43;;;1.70;;
42104;SDS011;70664;51.472;5.712;2024-01-15T12:57:36;8.40;;;1.60;;
42104;SDS011;70664;51.472;5.712;2024-01-15T13:00:03;11.75;;;2.00;;
42104;SDS011;70664;51.472;5.712;2024-01-15T13:02:37;7.95;;;1.35;;
42104;SDS011;70664;51.472;5.712;2024-01-15T13:05:09;3.55;;;1.02;;
42104;SDS011;70664;51.472;5.712;2024-01-15T13:07:39;6.97;;;1.27;;
42104;SDS011;70664;51.472;5.712;2024-01-15T13:10:05;8.15;;;1.40;;
42104;SDS011;70664;51.472;5.712;2024-01-15T13:12:32;8.52;;;2.05;;
42104;SDS011;70664;51.472;5.712;2024-01-15T13:14:59;10.05;;;1.25;;
42104;SDS011;70664;51.472;5.712;2024-01-15T13:17:25;6.97;;;1.33;;
42104;SDS011;70664;51.472;5.712;2024-01-15T13:19:50;5.32;;;1.30;;
42104;SDS011;70664;51.472;5.712;2024-01-15T13:22:17;6.20;;;1.08;;
42104;SDS011;70664;51.472;5.712;2024-01-15T13:24:42;7.32;;;1.30;;
42104;SDS011;70664;51.472;5.712;2024-01-15T13:27:08;7.65;;;1.45;;
42104;SDS011;70664;51.472;5.712;2024-01-15T13:29:34;6.85;;;1.42;;
42104;SDS011;70664;51.472;5.712;2024-01-15T13:32:00;5.68;;;1.45;;
42104;SDS011;70664;51.472;5.712;2024-01-15T13:34:26;6.53;;;1.10;;
42104;SDS011;70664;51.472;5.712;2024-01-15T13:36:52;8.73;;;1.45;;
42104;SDS011;70664;51.472;5.712;2024-01-15T13:39:18;5.97;;;1.20;;
42104;SDS011;70664;51.472;5.712;2024-01-15T13:42:03;2.97;;;1.00;;
42104;SDS011;70664;51.472;5.712;2024-01-15T13:44:29;4.10;;;1.00;;
42104;SDS011;70664;51.472;5.712;2024-01-15T13:46:55;7.93;;;1.25;;
42104;SDS011;70664;51.472;5.712;2024-01-15T13:49:22;9.23;;;1.38;;
42104;SDS011;70664;51.472;5.712;2024-01-15T13:51:48;5.40;;;1.13;;
42104;SDS011;70664;51.472;5.712;2024-01-15T13:54:15;4.63;;;1.20;;
42104;SDS011;70664;51.472;5.712;2024-01-15T13:56:40;6.38;;;1.20;;
42104;SDS011;70664;51.472;5.712;2024-01-15T13:59:07;4.03;;;0.95;;
42104;SDS011;70664;51.472;5.712;2024-01-15T14:01:33;6.45;;;0.80;;
42104;SDS011;70664;51.472;5.712;2024-01-15T14:03:59;5.78;;;1.38;;
42104;SDS011;70664;51.472;5.712;2024-01-15T14:06:25;5.80;;;1.30;;
42104;SDS011;70664;51.472;5.712;2024-01-15T14:08:51;4.03;;;1.13;;
42104;SDS011;70664;51.472;5.712;2024-01-15T14:11:17;3.72;;;1.08;;
42104;SDS011;70664;51.472;5.712;2024-01-15T14:13:43;4.35;;;1.13;;
42104;SDS011;70664;51.472;5.712;2024-01-15T14:16:08;8.57;;;1.65;;
42104;SDS011;70664;51.472;5.712;2024-01-15T14:18:34;4.05;;;1.00;;
42104;SDS011;70664;51.472;5.712;2024-01-15T14:21:00;6.70;;;0.93;;
42104;SDS011;70664;51.472;5.712;2024-01-15T14:23:26;3.92;;;1.02;;
42104;SDS011;70664;51.472;5.712;2024-01-15T14:25:51;6.97;;;1.23;;
42104;SDS011;70664;51.472;5.712;2024-01-15T14:28:17;7.38;;;1.23;;
42104;SDS011;70664;51.472;5.712;2024-01-15T14:30:43;4.53;;;1.00;;
42104;SDS011;70664;51.472;5.712;2024-01-15T14:33:09;4.88;;;0.82;;
42104;SDS011;70664;51.472;5.712;2024-01-15T14:35:35;5.15;;;1.02;;
42104;SDS011;70664;51.472;5.712;2024-01-15T14:38:01;6.25;;;1.40;;
42104;SDS011;70664;51.472;5.712;2024-01-15T14:40:27;4.15;;;1.10;;
42104;SDS011;70664;51.472;5.712;2024-01-15T14:42:53;2.67;;;0.90;;
42104;SDS011;70664;51.472;5.712;2024-01-15T14:45:20;3.80;;;1.10;;
42104;SDS011;70664;51.472;5.712;2024-01-15T14:47:45;3.28;;;1.08;;
42104;SDS011;70664;51.472;5.712;2024-01-15T14:50:11;1.95;;;0.70;;
42104;SDS011;70664;51.472;5.712;2024-01-15T14:52:37;4.70;;;0.90;;
42104;SDS011;70664;51.472;5.712;2024-01-15T14:55:04;5.60;;;1.08;;
42104;SDS011;70664;51.472;5.712;2024-01-15T14:57:31;4.18;;;1.10;;
42104;SDS011;70664;51.472;5.712;2024-01-15T14:59:57;3.28;;;1.20;;